sensor_id;sensor_type;location;lat;lon;timestamp;P1;durP1;ratioP1;P2;durP2;ratioP2
64887;SDS011;51386;53.082;8.816;2023-11-19T00:00:28;5.00;;;3.70;;
64887;SDS011;51386;53.082;8.816;2023-11-19T00:02:56;4.13;;;3.73;;
64887;SDS011;51386;53.082;8.816;2023-11-19T00:05:25;5.33;;;4.83;;
64887;SDS011;51386;53.082;8.816;2023-11-19T00:07:55;6.07;;;5.03;;
64887;SDS011;51386;53.082;8.816;2023-11-19T00:10:23;4.97;;;4.47;;
64887;SDS011;51386;53.082;8.816;2023-11-19T00:12:52;5.43;;;4.90;;
64887;SDS011;51386;53.082;8.816;2023-11-19T00:15:21;4.80;;;4.33;;
64887;SDS011;51386;53.082;8.816;2023-11-19T00:17:51;4.60;;;4.20;;
64887;SDS011;51386;53.082;8.816;2023-11-19T00:20:21;5.60;;;5.00;;
64887;SDS011;51386;53.082;8.816;2023-11-19T00:22:50;5.97;;;5.37;;
64887;SDS011;51386;53.082;8.816;2023-11-19T00:25:21;5.10;;;4.50;;
64887;SDS011;51386;53.082;8.816;2023-11-19T00:27:50;6.93;;;6.07;;
64887;SDS011;51386;53.082;8.816;2023-11-19T00:30:19;6.83;;;6.20;;
64887;SDS011;51386;53.082;8.816;2023-11-19T00:32:47;6.60;;;6.03;;
64887;SDS011;51386;53.082;8.816;2023-11-19T00:35:16;7.43;;;6.73;;
64887;SDS011;51386;53.082;8.816;2023-11-19T00:37:45;7.10;;;6.40;;
64887;SDS011;51386;53.082;8.816;2023-11-19T00:40:15;7.60;;;6.83;;
64887;SDS011;51386;53.082;8.816;2023-11-19T00:42:45;7.30;;;6.70;;
64887;SDS011;51386;53.082;8.816;2023-11-19T00:45:15;7.63;;;6.93;;
64887;SDS011;51386;53.082;8.816;2023-11-19T00:47:43;14.30;;;8.63;;
64887;SDS011;51386;53.082;8.816;2023-11-19T00:50:12;8.40;;;7.60;;
64887;SDS011;51386;53.082;8.816;2023-11-19T00:52:40;11.90;;;7.73;;
64887;SDS011;51386;53.082;8.816;2023-11-19T00:55:09;9.07;;;8.17;;
64887;SDS011;51386;53.082;8.816;2023-11-19T00:57:39;7.87;;;7.07;;
64887;SDS011;51386;53.082;8.816;2023-11-19T01:00:07;8.53;;;7.67;;
64887;SDS011;51386;53.082;8.816;2023-11-19T01:02:46;8.37;;;7.60;;
64887;SDS011;51386;53.082;8.816;2023-11-19T01:05:18;8.50;;;7.70;;
64887;SDS011;51386;53.082;8.816;2023-11-19T01:07:51;11.57;;;9.40;;
64887;SDS011;51386;53.082;8.816;2023-11-19T01:10:21;10.17;;;9.17;;
64887;SDS011;51386;53.082;8.816;2023-11-19T01:12:50;8.57;;;7.80;;
64887;SDS011;51386;53.082;8.816;2023-11-19T01:15:18;8.63;;;7.77;;
64887;SDS011;51386;53.082;8.816;2023-11-19T01:17:47;8.37;;;7.57;;
64887;SDS011;51386;53.082;8.816;2023-11-19T01:20:19;10.13;;;9.13;;
64887;SDS011;51386;53.082;8.816;2023-11-19T01:22:48;10.03;;;9.03;;
64887;SDS011;51386;53.082;8.816;2023-11-19T01:25:17;9.30;;;8.43;;
64887;SDS011;51386;53.082;8.816;2023-11-19T01:27:46;12.60;;;8.80;;
64887;SDS011;51386;53.082;8.816;2023-11-19T01:30:14;9.67;;;8.77;;
64887;SDS011;51386;53.082;8.816;2023-11-19T01:32:43;8.87;;;7.97;;
64887;SDS011;51386;53.082;8.816;2023-11-19T01:35:11;9.63;;;8.10;;
64887;SDS011;51386;53.082;8.816;2023-11-19T01:37:40;9.47;;;8.53;;
64887;SDS011;51386;53.082;8.816;2023-11-19T01:40:08;9.50;;;8.60;;
64887;SDS011;51386;53.082;8.816;2023-11-19T01:42:39;9.77;;;8.87;;
64887;SDS011;51386;53.082;8.816;2023-11-19T01:45:08;11.87;;;10.67;;
64887;SDS011;51386;53.082;8.816;2023-11-19T01:47:37;11.33;;;10.13;;
64887;SDS011;51386;53.082;8.816;2023-11-19T01:50:06;10.90;;;9.53;;
64887;SDS011;51386;53.082;8.816;2023-11-19T01:52:36;12.20;;;10.70;;
64887;SDS011;51386;53.082;8.816;2023-11-19T01:55:06;11.70;;;10.50;;
64887;SDS011;51386;53.082;8.816;2023-11-19T01:57:38;11.47;;;10.37;;
64887;SDS011;51386;53.082;8.816;2023-11-19T02:00:08;10.77;;;9.73;;
64887;SDS011;51386;53.082;8.816;2023-11-19T02:02:40;10.70;;;9.70;;
64887;SDS011;51386;53.082;8.816;2023-11-19T02:05:10;12.17;;;10.83;;
64887;SDS011;51386;53.082;8.816;2023-11-19T02:07:40;13.07;;;11.63;;
64887;SDS011;51386;53.082;8.816;2023-11-19T02:10:09;12.30;;;11.10;;
64887;SDS011;51386;53.082;8.816;2023-11-19T02:12:41;14.10;;;12.60;;
64887;SDS011;51386;53.082;8.816;2023-11-19T02:15:10;14.10;;;12.70;;
64887;SDS011;51386;53.082;8.816;2023-11-19T02:17:39;14.23;;;12.00;;
64887;SDS011;51386;53.082;8.816;2023-11-19T02:20:08;15.33;;;12.23;;
64887;SDS011;51386;53.082;8.816;2023-11-19T02:22:39;13.97;;;12.60;;
64887;SDS011;51386;53.082;8.816;2023-11-19T02:25:07;15.60;;;13.83;;
64887;SDS011;51386;53.082;8.816;2023-11-19T02:27:55;15.43;;;12.97;;
64887;SDS011;51386;53.082;8.816;2023-11-19T02:30:27;15.43;;;13.93;;
64887;SDS011;51386;53.082;8.816;2023-11-19T02:32:56;17.33;;;15.57;;
64887;SDS011;51386;53.082;8.816;2023-11-19T02:35:32;16.73;;;15.13;;
64887;SDS011;51386;53.082;8.816;2023-11-19T02:38:01;16.67;;;14.83;;
64887;SDS011;51386;53.082;8.816;2023-11-19T02:40:34;16.93;;;15.17;;
64887;SDS011;51386;53.082;8.816;2023-11-19T02:43:02;19.47;;;16.60;;
64887;SDS011;51386;53.082;8.816;2023-11-19T02:45:32;18.63;;;16.73;;
64887;SDS011;51386;53.082;8.816;2023-11-19T02:48:01;18.43;;;16.40;;
64887;SDS011;51386;53.082;8.816;2023-11-19T02:50:29;19.00;;;16.97;;
64887;SDS011;51386;53.082;8.816;2023-11-19T02:52:58;20.23;;;17.33;;
64887;SDS011;51386;53.082;8.816;2023-11-19T02:55:27;22.40;;;18.13;;
64887;SDS011;51386;53.082;8.816;2023-11-19T02:57:58;20.23;;;17.47;;
64887;SDS011;51386;53.082;8.816;2023-11-19T03:00:27;21.10;;;18.10;;
64887;SDS011;51386;53.082;8.816;2023-11-19T03:03:03;20.30;;;18.13;;
64887;SDS011;51386;53.082;8.816;2023-11-19T03:05:46;17.70;;;15.90;;
64887;SDS011;51386;53.082;8.816;2023-11-19T03:08:15;19.53;;;17.50;;
64887;SDS011;51386;53.082;8.816;2023-11-19T03:10:47;18.90;;;16.93;;
64887;SDS011;51386;53.082;8.816;2023-11-19T03:13:15;19.87;;;17.80;;
64887;SDS011;51386;53.082;8.816;2023-11-19T03:15:45;18.00;;;16.13;;
64887;SDS011;51386;53.082;8.816;2023-11-19T03:18:14;19.73;;;17.50;;
64887;SDS011;51386;53.082;8.816;2023-11-19T03:20:42;19.77;;;16.37;;
64887;SDS011;51386;53.082;8.816;2023-11-19T03:23:10;19.20;;;17.20;;
64887;SDS011;51386;53.082;8.816;2023-11-19T03:25:39;21.80;;;16.93;;
64887;SDS011;51386;53.082;8.816;2023-11-19T03:28:08;20.47;;;16.03;;
64887;SDS011;51386;53.082;8.816;2023-11-19T03:30:36;19.63;;;16.33;;
64887;SDS011;51386;53.082;8.816;2023-11-19T03:33:04;19.40;;;16.87;;
64887;SDS011;51386;53.082;8.816;2023-11-19T03:35:33;18.03;;;16.00;;
64887;SDS011;51386;53.082;8.816;2023-11-19T03:38:01;22.47;;;17.53;;
64887;SDS011;51386;53.082;8.816;2023-11-19T03:40:30;22.83;;;18.30;;
64887;SDS011;51386;53.082;8.816;2023-11-19T03:42:58;22.10;;;17.17;;
64887;SDS011;51386;53.082;8.816;2023-11-19T03:45:27;21.17;;;15.93;;
64887;SDS011;51386;53.082;8.816;2023-11-19T03:47:55;26.00;;;17.60;;
64887;SDS011;51386;53.082;8.816;2023-11-19T03:50:23;18.43;;;16.30;;
64887;SDS011;51386;53.082;8.816;2023-11-19T03:52:52;24.60;;;16.70;;
64887;SDS011;51386;53.082;8.816;2023-11-19T03:55:20;24.60;;;17.50;;
64887;SDS011;51386;53.082;8.816;2023-11-19T03:57:48;25.13;;;17.57;;
64887;SDS011;51386;53.082;8.816;2023-11-19T04:00:17;25.00;;;17.47;;
64887;SDS011;51386;53.082;8.816;2023-11-19T04:02:48;24.37;;;16.87;;
64887;SDS011;51386;53.082;8.816;2023-11-19T04:05:17;21.23;;;16.63;;
64887;SDS011;51386;53.082;8.816;2023-11-19T04:07:46;22.40;;;16.27;;
64887;SDS011;51386;53.082;8.816;2023-11-19T04:10:14;23.33;;;17.17;;
64887;SDS011;51386;53.082;8.816;2023-11-19T04:12:44;27.70;;;16.73;;
64887;SDS011;51386;53.082;8.816;2023-11-19T04:15:12;18.63;;;16.53;;
64887;SDS011;51386;53.082;8.816;2023-11-19T04:17:43;25.50;;;16.90;;
64887;SDS011;51386;53.082;8.816;2023-11-19T04:20:11;24.93;;;17.43;;
64887;SDS011;51386;53.082;8.816;2023-11-19T04:22:41;22.57;;;17.13;;
64887;SDS011;51386;53.082;8.816;2023-11-19T04:25:09;25.40;;;15.57;;
64887;SDS011;51386;53.082;8.816;2023-11-19T04:27:38;24.43;;;16.87;;
64887;SDS011;51386;53.082;8.816;2023-11-19T04:30:07;23.70;;;17.40;;
64887;SDS011;51386;53.082;8.816;2023-11-19T04:32:38;23.67;;;16.77;;
64887;SDS011;51386;53.082;8.816;2023-11-19T04:35:07;20.93;;;15.47;;
64887;SDS011;51386;53.082;8.816;2023-11-19T04:37:36;20.20;;;16.50;;
64887;SDS011;51386;53.082;8.816;2023-11-19T04:40:05;21.67;;;16.70;;
64887;SDS011;51386;53.082;8.816;2023-11-19T04:42:34;22.23;;;16.07;;
64887;SDS011;51386;53.082;8.816;2023-11-19T04:45:03;21.80;;;15.40;;
64887;SDS011;51386;53.082;8.816;2023-11-19T04:47:34;21.83;;;15.53;;
64887;SDS011;51386;53.082;8.816;2023-11-19T04:50:02;24.67;;;15.20;;
64887;SDS011;51386;53.082;8.816;2023-11-19T04:52:31;22.90;;;16.03;;
64887;SDS011;51386;53.082;8.816;2023-11-19T04:55:00;19.70;;;14.10;;
64887;SDS011;51386;53.082;8.816;2023-11-19T04:57:28;28.37;;;14.80;;
64887;SDS011;51386;53.082;8.816;2023-11-19T04:59:57;25.20;;;14.77;;
64887;SDS011;51386;53.082;8.816;2023-11-19T05:02:25;21.43;;;14.43;;
64887;SDS011;51386;53.082;8.816;2023-11-19T05:04:53;21.17;;;13.77;;
64887;SDS011;51386;53.082;8.816;2023-11-19T05:07:22;23.20;;;14.53;;
64887;SDS011;51386;53.082;8.816;2023-11-19T05:09:51;21.53;;;13.57;;
64887;SDS011;51386;53.082;8.816;2023-11-19T05:12:19;23.97;;;14.23;;
64887;SDS011;51386;53.082;8.816;2023-11-19T05:14:47;23.00;;;13.70;;
64887;SDS011;51386;53.082;8.816;2023-11-19T05:17:18;21.03;;;14.83;;
64887;SDS011;51386;53.082;8.816;2023-11-19T05:19:46;23.70;;;13.37;;
64887;SDS011;51386;53.082;8.816;2023-11-19T05:22:16;21.13;;;14.03;;
64887;SDS011;51386;53.082;8.816;2023-11-19T05:24:45;22.67;;;12.77;;
64887;SDS011;51386;53.082;8.816;2023-11-19T05:27:14;24.40;;;13.00;;
64887;SDS011;51386;53.082;8.816;2023-11-19T05:29:42;24.43;;;11.73;;
64887;SDS011;51386;53.082;8.816;2023-11-19T05:32:11;24.97;;;12.10;;
64887;SDS011;51386;53.082;8.816;2023-11-19T05:34:39;25.10;;;11.30;;
64887;SDS011;51386;53.082;8.816;2023-11-19T05:37:10;21.53;;;11.13;;
64887;SDS011;51386;53.082;8.816;2023-11-19T05:39:39;23.67;;;10.40;;
64887;SDS011;51386;53.082;8.816;2023-11-19T05:42:07;28.03;;;10.07;;
64887;SDS011;51386;53.082;8.816;2023-11-19T05:44:37;22.07;;;10.00;;
64887;SDS011;51386;53.082;8.816;2023-11-19T05:47:07;21.27;;;9.50;;
64887;SDS011;51386;53.082;8.816;2023-11-19T05:49:35;18.83;;;9.63;;
64887;SDS011;51386;53.082;8.816;2023-11-19T05:52:04;26.40;;;8.60;;
64887;SDS011;51386;53.082;8.816;2023-11-19T05:54:35;18.50;;;8.63;;
64887;SDS011;51386;53.082;8.816;2023-11-19T05:57:06;27.70;;;8.43;;
64887;SDS011;51386;53.082;8.816;2023-11-19T05:59:37;21.50;;;8.27;;
64887;SDS011;51386;53.082;8.816;2023-11-19T06:02:06;26.50;;;8.93;;
64887;SDS011;51386;53.082;8.816;2023-11-19T06:04:34;23.23;;;8.30;;
64887;SDS011;51386;53.082;8.816;2023-11-19T06:07:02;25.70;;;8.00;;
64887;SDS011;51386;53.082;8.816;2023-11-19T06:09:32;27.17;;;8.07;;
64887;SDS011;51386;53.082;8.816;2023-11-19T06:12:01;21.60;;;6.87;;
64887;SDS011;51386;53.082;8.816;2023-11-19T06:14:30;21.13;;;7.33;;
64887;SDS011;51386;53.082;8.816;2023-11-19T06:16:58;25.50;;;6.83;;
64887;SDS011;51386;53.082;8.816;2023-11-19T06:19:27;22.17;;;7.63;;
64887;SDS011;51386;53.082;8.816;2023-11-19T06:21:56;23.27;;;6.77;;
64887;SDS011;51386;53.082;8.816;2023-11-19T06:24:25;23.67;;;7.67;;
64887;SDS011;51386;53.082;8.816;2023-11-19T06:26:53;20.57;;;7.43;;
64887;SDS011;51386;53.082;8.816;2023-11-19T06:29:21;25.97;;;6.37;;
64887;SDS011;51386;53.082;8.816;2023-11-19T06:31:50;23.73;;;6.30;;
64887;SDS011;51386;53.082;8.816;2023-11-19T06:34:18;21.13;;;6.63;;
64887;SDS011;51386;53.082;8.816;2023-11-19T06:36:47;25.63;;;7.23;;
64887;SDS011;51386;53.082;8.816;2023-11-19T06:39:16;22.83;;;6.77;;
64887;SDS011;51386;53.082;8.816;2023-11-19T06:41:45;19.17;;;5.87;;
64887;SDS011;51386;53.082;8.816;2023-11-19T06:44:14;22.40;;;6.10;;
64887;SDS011;51386;53.082;8.816;2023-11-19T06:46:43;25.57;;;5.80;;
64887;SDS011;51386;53.082;8.816;2023-11-19T06:49:11;27.17;;;7.07;;
64887;SDS011;51386;53.082;8.816;2023-11-19T06:51:42;22.50;;;6.37;;
64887;SDS011;51386;53.082;8.816;2023-11-19T06:54:11;24.03;;;6.57;;
64887;SDS011;51386;53.082;8.816;2023-11-19T06:56:40;22.83;;;6.50;;
64887;SDS011;51386;53.082;8.816;2023-11-19T06:59:09;29.87;;;6.50;;
64887;SDS011;51386;53.082;8.816;2023-11-19T07:01:37;33.80;;;7.33;;
64887;SDS011;51386;53.082;8.816;2023-11-19T07:04:06;32.57;;;7.63;;
64887;SDS011;51386;53.082;8.816;2023-11-19T07:06:37;26.70;;;6.80;;
64887;SDS011;51386;53.082;8.816;2023-11-19T07:09:08;30.43;;;7.07;;
64887;SDS011;51386;53.082;8.816;2023-11-19T07:11:40;21.87;;;6.33;;
64887;SDS011;51386;53.082;8.816;2023-11-19T07:14:09;27.63;;;6.83;;
64887;SDS011;51386;53.082;8.816;2023-11-19T07:16:38;23.37;;;6.53;;
64887;SDS011;51386;53.082;8.816;2023-11-19T07:19:07;21.67;;;5.63;;
64887;SDS011;51386;53.082;8.816;2023-11-19T07:21:35;24.73;;;6.10;;
64887;SDS011;51386;53.082;8.816;2023-11-19T07:24:11;26.90;;;6.77;;
64887;SDS011;51386;53.082;8.816;2023-11-19T07:26:41;26.47;;;6.40;;
64887;SDS011;51386;53.082;8.816;2023-11-19T07:29:12;29.53;;;6.53;;
64887;SDS011;51386;53.082;8.816;2023-11-19T07:31:54;29.60;;;6.03;;
64887;SDS011;51386;53.082;8.816;2023-11-19T07:34:24;26.03;;;6.47;;
64887;SDS011;51386;53.082;8.816;2023-11-19T07:36:52;20.67;;;6.33;;
64887;SDS011;51386;53.082;8.816;2023-11-19T07:39:21;35.07;;;6.53;;
64887;SDS011;51386;53.082;8.816;2023-11-19T07:41:49;31.40;;;8.17;;
64887;SDS011;51386;53.082;8.816;2023-11-19T07:44:18;19.57;;;5.63;;
64887;SDS011;51386;53.082;8.816;2023-11-19T07:46:48;23.93;;;5.87;;
64887;SDS011;51386;53.082;8.816;2023-11-19T07:49:17;25.83;;;6.90;;
64887;SDS011;51386;53.082;8.816;2023-11-19T07:51:45;22.67;;;6.10;;
64887;SDS011;51386;53.082;8.816;2023-11-19T07:54:13;21.57;;;6.53;;
64887;SDS011;51386;53.082;8.816;2023-11-19T07:56:42;18.67;;;5.83;;
64887;SDS011;51386;53.082;8.816;2023-11-19T07:59:10;34.03;;;7.07;;
64887;SDS011;51386;53.082;8.816;2023-11-19T08:01:39;29.23;;;7.47;;
64887;SDS011;51386;53.082;8.816;2023-11-19T08:04:07;31.03;;;6.97;;
64887;SDS011;51386;53.082;8.816;2023-11-19T08:06:36;30.73;;;6.67;;
64887;SDS011;51386;53.082;8.816;2023-11-19T08:09:04;27.13;;;6.70;;
64887;SDS011;51386;53.082;8.816;2023-11-19T08:11:34;28.33;;;6.73;;
64887;SDS011;51386;53.082;8.816;2023-11-19T08:14:02;33.87;;;7.27;;
64887;SDS011;51386;53.082;8.816;2023-11-19T08:16:30;32.30;;;7.60;;
64887;SDS011;51386;53.082;8.816;2023-11-19T08:18:59;25.07;;;7.20;;
64887;SDS011;51386;53.082;8.816;2023-11-19T08:21:27;29.33;;;6.67;;
64887;SDS011;51386;53.082;8.816;2023-11-19T08:23:56;29.63;;;7.40;;
64887;SDS011;51386;53.082;8.816;2023-11-19T08:26:24;38.07;;;8.57;;
64887;SDS011;51386;53.082;8.816;2023-11-19T08:28:53;27.10;;;7.53;;
64887;SDS011;51386;53.082;8.816;2023-11-19T08:31:21;27.47;;;7.27;;
64887;SDS011;51386;53.082;8.816;2023-11-19T08:33:49;32.47;;;7.00;;
64887;SDS011;51386;53.082;8.816;2023-11-19T08:36:18;25.73;;;7.57;;
64887;SDS011;51386;53.082;8.816;2023-11-19T08:38:46;29.37;;;7.13;;
64887;SDS011;51386;53.082;8.816;2023-11-19T08:41:16;26.80;;;7.70;;
64887;SDS011;51386;53.082;8.816;2023-11-19T08:43:45;24.93;;;6.70;;
64887;SDS011;51386;53.082;8.816;2023-11-19T08:46:13;25.67;;;6.63;;
64887;SDS011;51386;53.082;8.816;2023-11-19T08:48:42;23.80;;;6.50;;
64887;SDS011;51386;53.082;8.816;2023-11-19T08:51:10;31.53;;;8.13;;
64887;SDS011;51386;53.082;8.816;2023-11-19T08:53:40;26.77;;;6.70;;
64887;SDS011;51386;53.082;8.816;2023-11-19T08:56:08;27.33;;;5.93;;
64887;SDS011;51386;53.082;8.816;2023-11-19T08:58:37;20.57;;;6.27;;
64887;SDS011;51386;53.082;8.816;2023-11-19T09:01:05;25.60;;;7.07;;
64887;SDS011;51386;53.082;8.816;2023-11-19T09:03:33;24.50;;;6.07;;
64887;SDS011;51386;53.082;8.816;2023-11-19T09:06:02;34.30;;;7.23;;
64887;SDS011;51386;53.082;8.816;2023-11-19T09:08:31;24.33;;;6.07;;
64887;SDS011;51386;53.082;8.816;2023-11-19T09:10:59;23.00;;;7.03;;
64887;SDS011;51386;53.082;8.816;2023-11-19T09:13:27;23.80;;;6.73;;
64887;SDS011;51386;53.082;8.816;2023-11-19T09:15:56;22.27;;;6.40;;
64887;SDS011;51386;53.082;8.816;2023-11-19T09:18:31;26.57;;;6.87;;
64887;SDS011;51386;53.082;8.816;2023-11-19T09:20:59;26.17;;;6.90;;
64887;SDS011;51386;53.082;8.816;2023-11-19T09:23:28;27.77;;;7.40;;
64887;SDS011;51386;53.082;8.816;2023-11-19T09:26:00;23.60;;;5.87;;
64887;SDS011;51386;53.082;8.816;2023-11-19T09:28:28;28.77;;;7.13;;
64887;SDS011;51386;53.082;8.816;2023-11-19T09:30:57;25.73;;;6.33;;
64887;SDS011;51386;53.082;8.816;2023-11-19T09:33:26;28.00;;;6.33;;
64887;SDS011;51386;53.082;8.816;2023-11-19T09:35:55;25.37;;;6.67;;
64887;SDS011;51386;53.082;8.816;2023-11-19T09:38:23;22.30;;;6.37;;
64887;SDS011;51386;53.082;8.816;2023-11-19T09:40:51;25.50;;;5.83;;
64887;SDS011;51386;53.082;8.816;2023-11-19T09:43:20;22.83;;;6.37;;
64887;SDS011;51386;53.082;8.816;2023-11-19T09:45:49;28.00;;;6.73;;
64887;SDS011;51386;53.082;8.816;2023-11-19T09:48:18;28.30;;;7.17;;
64887;SDS011;51386;53.082;8.816;2023-11-19T09:50:47;33.83;;;8.10;;
64887;SDS011;51386;53.082;8.816;2023-11-19T09:53:17;27.70;;;7.63;;
64887;SDS011;51386;53.082;8.816;2023-11-19T09:55:45;21.50;;;6.73;;
64887;SDS011;51386;53.082;8.816;2023-11-19T09:58:14;28.03;;;8.47;;
64887;SDS011;51386;53.082;8.816;2023-11-19T10:00:43;28.97;;;6.93;;
64887;SDS011;51386;53.082;8.816;2023-11-19T10:03:23;31.00;;;6.90;;
64887;SDS011;51386;53.082;8.816;2023-11-19T10:05:54;27.90;;;7.30;;
64887;SDS011;51386;53.082;8.816;2023-11-19T10:08:23;30.63;;;6.70;;
64887;SDS011;51386;53.082;8.816;2023-11-19T10:10:52;33.53;;;8.13;;
64887;SDS011;51386;53.082;8.816;2023-11-19T10:13:25;30.23;;;7.97;;
64887;SDS011;51386;53.082;8.816;2023-11-19T10:15:58;31.30;;;8.67;;
64887;SDS011;51386;53.082;8.816;2023-11-19T10:18:26;21.43;;;5.97;;
64887;SDS011;51386;53.082;8.816;2023-11-19T10:20:54;24.13;;;6.17;;
64887;SDS011;51386;53.082;8.816;2023-11-19T10:23:23;26.67;;;6.70;;
64887;SDS011;51386;53.082;8.816;2023-11-19T10:25:52;25.70;;;7.90;;
64887;SDS011;51386;53.082;8.816;2023-11-19T10:28:21;31.83;;;7.43;;
64887;SDS011;51386;53.082;8.816;2023-11-19T10:30:49;29.50;;;7.07;;
64887;SDS011;51386;53.082;8.816;2023-11-19T10:33:23;33.10;;;7.17;;
64887;SDS011;51386;53.082;8.816;2023-11-19T10:35:58;27.33;;;8.27;;
64887;SDS011;51386;53.082;8.816;2023-11-19T10:38:29;26.23;;;7.70;;
64887;SDS011;51386;53.082;8.816;2023-11-19T10:40:58;29.77;;;7.20;;
64887;SDS011;51386;53.082;8.816;2023-11-19T10:43:26;21.03;;;5.90;;
64887;SDS011;51386;53.082;8.816;2023-11-19T10:45:57;28.37;;;7.30;;
64887;SDS011;51386;53.082;8.816;2023-11-19T10:48:39;24.90;;;6.97;;
64887;SDS011;51386;53.082;8.816;2023-11-19T10:51:08;20.97;;;6.57;;
64887;SDS011;51386;53.082;8.816;2023-11-19T10:53:38;17.93;;;5.73;;
64887;SDS011;51386;53.082;8.816;2023-11-19T10:56:10;25.43;;;5.90;;
64887;SDS011;51386;53.082;8.816;2023-11-19T10:58:44;25.03;;;6.63;;
64887;SDS011;51386;53.082;8.816;2023-11-19T11:01:26;19.43;;;5.20;;
64887;SDS011;51386;53.082;8.816;2023-11-19T11:04:11;24.07;;;5.83;;
64887;SDS011;51386;53.082;8.816;2023-11-19T11:06:43;20.90;;;6.07;;
64887;SDS011;51386;53.082;8.816;2023-11-19T11:09:12;20.10;;;5.77;;
64887;SDS011;51386;53.082;8.816;2023-11-19T11:11:46;25.70;;;5.90;;
64887;SDS011;51386;53.082;8.816;2023-11-19T11:14:15;24.73;;;6.13;;
64887;SDS011;51386;53.082;8.816;2023-11-19T11:16:48;23.87;;;5.53;;
64887;SDS011;51386;53.082;8.816;2023-11-19T11:19:17;24.10;;;6.63;;
64887;SDS011;51386;53.082;8.816;2023-11-19T11:21:47;27.47;;;6.20;;
64887;SDS011;51386;53.082;8.816;2023-11-19T11:27:17;21.97;;;5.70;;
64887;SDS011;51386;53.082;8.816;2023-11-19T11:30:20;19.07;;;5.57;;
64887;SDS011;51386;53.082;8.816;2023-11-19T11:36:45;24.33;;;6.37;;
64887;SDS011;51386;53.082;8.816;2023-11-19T11:39:36;19.30;;;6.73;;
64887;SDS011;51386;53.082;8.816;2023-11-19T11:42:30;23.20;;;6.97;;
64887;SDS011;51386;53.082;8.816;2023-11-19T11:50:13;19.17;;;6.30;;
64887;SDS011;51386;53.082;8.816;2023-11-19T11:57:59;27.97;;;6.77;;
64887;SDS011;51386;53.082;8.816;2023-11-19T12:02:59;20.13;;;7.17;;
64887;SDS011;51386;53.082;8.816;2023-11-19T12:05:31;29.07;;;7.57;;
64887;SDS011;51386;53.082;8.816;2023-11-19T12:08:12;27.50;;;7.00;;
64887;SDS011;51386;53.082;8.816;2023-11-19T12:10:45;27.33;;;6.87;;
64887;SDS011;51386;53.082;8.816;2023-11-19T12:13:19;25.77;;;7.37;;
64887;SDS011;51386;53.082;8.816;2023-11-19T12:18:33;27.23;;;7.07;;
64887;SDS011;51386;53.082;8.816;2023-11-19T12:21:03;26.00;;;7.30;;
64887;SDS011;51386;53.082;8.816;2023-11-19T12:23:33;18.90;;;6.27;;
64887;SDS011;51386;53.082;8.816;2023-11-19T12:26:01;29.30;;;7.40;;
64887;SDS011;51386;53.082;8.816;2023-11-19T12:28:31;30.17;;;7.27;;
64887;SDS011;51386;53.082;8.816;2023-11-19T12:31:08;20.77;;;6.40;;
64887;SDS011;51386;53.082;8.816;2023-11-19T12:33:37;24.73;;;6.90;;
64887;SDS011;51386;53.082;8.816;2023-11-19T12:36:05;25.80;;;6.87;;
64887;SDS011;51386;53.082;8.816;2023-11-19T12:38:35;29.57;;;7.07;;
64887;SDS011;51386;53.082;8.816;2023-11-19T12:41:07;29.30;;;7.40;;
64887;SDS011;51386;53.082;8.816;2023-11-19T12:43:44;30.80;;;6.90;;
64887;SDS011;51386;53.082;8.816;2023-11-19T12:46:19;27.30;;;6.43;;
64887;SDS011;51386;53.082;8.816;2023-11-19T12:48:51;23.77;;;7.53;;
64887;SDS011;51386;53.082;8.816;2023-11-19T12:51:20;22.60;;;6.00;;
64887;SDS011;51386;53.082;8.816;2023-11-19T12:53:49;21.70;;;5.63;;
64887;SDS011;51386;53.082;8.816;2023-11-19T12:56:26;22.00;;;5.17;;
64887;SDS011;51386;53.082;8.816;2023-11-19T12:59:11;19.60;;;5.10;;
64887;SDS011;51386;53.082;8.816;2023-11-19T13:01:54;13.20;;;4.17;;
64887;SDS011;51386;53.082;8.816;2023-11-19T13:04:29;14.53;;;4.40;;
64887;SDS011;51386;53.082;8.816;2023-11-19T13:06:58;13.90;;;4.47;;
64887;SDS011;51386;53.082;8.816;2023-11-19T13:09:31;11.87;;;3.83;;
64887;SDS011;51386;53.082;8.816;2023-11-19T13:12:11;10.17;;;3.07;;
64887;SDS011;51386;53.082;8.816;2023-11-19T13:14:42;8.20;;;2.47;;
64887;SDS011;51386;53.082;8.816;2023-11-19T13:17:13;8.30;;;2.27;;
64887;SDS011;51386;53.082;8.816;2023-11-19T13:19:46;5.23;;;1.40;;
64887;SDS011;51386;53.082;8.816;2023-11-19T13:22:27;6.17;;;1.90;;
64887;SDS011;51386;53.082;8.816;2023-11-19T13:24:56;4.03;;;1.57;;
64887;SDS011;51386;53.082;8.816;2023-11-19T13:27:26;5.93;;;1.50;;
64887;SDS011;51386;53.082;8.816;2023-11-19T13:29:55;4.03;;;1.40;;
64887;SDS011;51386;53.082;8.816;2023-11-19T13:32:23;4.70;;;1.60;;
64887;SDS011;51386;53.082;8.816;2023-11-19T13:34:51;3.97;;;1.23;;
64887;SDS011;51386;53.082;8.816;2023-11-19T13:37:20;6.60;;;1.43;;
64887;SDS011;51386;53.082;8.816;2023-11-19T13:39:48;4.23;;;1.27;;
64887;SDS011;51386;53.082;8.816;2023-11-19T13:42:17;6.20;;;2.13;;
64887;SDS011;51386;53.082;8.816;2023-11-19T13:44:45;6.70;;;2.17;;
64887;SDS011;51386;53.082;8.816;2023-11-19T13:47:13;5.20;;;2.20;;
64887;SDS011;51386;53.082;8.816;2023-11-19T13:49:43;7.33;;;2.43;;
64887;SDS011;51386;53.082;8.816;2023-11-19T13:52:12;7.13;;;3.00;;
64887;SDS011;51386;53.082;8.816;2023-11-19T13:54:41;7.50;;;3.70;;
64887;SDS011;51386;53.082;8.816;2023-11-19T13:57:09;9.03;;;4.67;;
64887;SDS011;51386;53.082;8.816;2023-11-19T13:59:41;11.83;;;4.53;;
64887;SDS011;51386;53.082;8.816;2023-11-19T14:02:09;14.60;;;4.63;;
64887;SDS011;51386;53.082;8.816;2023-11-19T14:04:37;15.37;;;4.20;;
64887;SDS011;51386;53.082;8.816;2023-11-19T14:07:06;15.83;;;5.13;;
64887;SDS011;51386;53.082;8.816;2023-11-19T14:09:34;9.13;;;4.30;;
64887;SDS011;51386;53.082;8.816;2023-11-19T14:12:03;13.80;;;4.90;;
64887;SDS011;51386;53.082;8.816;2023-11-19T14:14:32;15.10;;;5.37;;
64887;SDS011;51386;53.082;8.816;2023-11-19T14:17:03;14.23;;;5.87;;
64887;SDS011;51386;53.082;8.816;2023-11-19T14:19:34;26.13;;;6.10;;
64887;SDS011;51386;53.082;8.816;2023-11-19T14:22:03;18.07;;;5.53;;
64887;SDS011;51386;53.082;8.816;2023-11-19T14:24:31;16.07;;;5.27;;
64887;SDS011;51386;53.082;8.816;2023-11-19T14:27:00;16.60;;;5.73;;
64887;SDS011;51386;53.082;8.816;2023-11-19T14:29:29;22.30;;;6.37;;
64887;SDS011;51386;53.082;8.816;2023-11-19T14:31:58;23.23;;;6.40;;
64887;SDS011;51386;53.082;8.816;2023-11-19T14:34:30;20.77;;;5.87;;
64887;SDS011;51386;53.082;8.816;2023-11-19T14:36:59;22.63;;;5.53;;
64887;SDS011;51386;53.082;8.816;2023-11-19T14:39:28;23.97;;;6.37;;
64887;SDS011;51386;53.082;8.816;2023-11-19T14:41:58;12.67;;;4.80;;
64887;SDS011;51386;53.082;8.816;2023-11-19T14:44:31;18.00;;;4.97;;
64887;SDS011;51386;53.082;8.816;2023-11-19T14:47:00;20.83;;;4.73;;
64887;SDS011;51386;53.082;8.816;2023-11-19T14:49:29;18.37;;;5.17;;
64887;SDS011;51386;53.082;8.816;2023-11-19T14:51:58;15.67;;;4.80;;
64887;SDS011;51386;53.082;8.816;2023-11-19T14:54:29;18.30;;;4.40;;
64887;SDS011;51386;53.082;8.816;2023-11-19T14:56:58;16.33;;;4.30;;
64887;SDS011;51386;53.082;8.816;2023-11-19T14:59:28;14.60;;;4.10;;
64887;SDS011;51386;53.082;8.816;2023-11-19T15:01:56;9.67;;;3.87;;
64887;SDS011;51386;53.082;8.816;2023-11-19T15:04:25;12.97;;;3.97;;
64887;SDS011;51386;53.082;8.816;2023-11-19T15:06:56;15.07;;;3.57;;
64887;SDS011;51386;53.082;8.816;2023-11-19T15:09:26;12.97;;;3.37;;
64887;SDS011;51386;53.082;8.816;2023-11-19T15:11:54;17.93;;;4.33;;